KUKT/UKT METAR and TAF weather

Enter ICAO airport designator
Station Type Date Time Source
KUKT METAR 2020/09/22 16:35 UTC NOAA

KUKT 221635Z AUTO VRB05KT 10SM CLR 19/05 A3012 RMK A01


Station Type Date Time Source
KUKT Decoded METAR 2020/09/22 16:35 UTC NOAA

Quakertown, Quakertown Airport, PA, United States (KUKT) 40-26-06N 075-22-54W
Sep 22, 2020 - 12:35 PM EDT / 2020.09.22 1635 UTC
Wind: Variable at 6 MPH (5 KT):0
Visibility: 10 mile(s):0
Sky conditions: clear
Temperature: 66 F (19 C)
Dew Point: 41 F (5 C)
Relative Humidity: 39%
Pressure (altimeter): 30.12 in. Hg (1019 hPa)
ob: KUKT 221635Z AUTO VRB05KT 10SM CLR 19/05 A3012 RMK A01
cycle: 16

Station Type Date Time Source
KUKT TAF UTC NOAA

Error!

Example: see airport list